createdAt,value
2022-11-07T00:01:52.238Z,9.3
2022-11-07T00:06:58.188Z,9.3
2022-11-07T00:12:06.241Z,9.3
2022-11-07T00:17:12.189Z,9.3
2022-11-07T00:22:18.252Z,9.3
2022-11-07T00:27:24.606Z,9.3
2022-11-07T00:32:30.358Z,9.3
2022-11-07T00:37:38.310Z,9.3
2022-11-07T00:42:46.284Z,9.3
2022-11-07T00:47:54.219Z,9.3
2022-11-07T00:53:02.160Z,9.3
2022-11-07T00:58:13.851Z,9.3
2022-11-07T01:03:16.394Z,9.3
2022-11-07T01:08:24.106Z,9.3
2022-11-07T01:13:30.185Z,9.3
2022-11-07T01:18:36.225Z,9.3
2022-11-07T01:23:42.290Z,9.3
2022-11-07T01:28:48.447Z,9.3
2022-11-07T01:33:54.408Z,9.3
2022-11-07T01:39:00.448Z,9.3
2022-11-07T01:44:06.544Z,9.2
2022-11-07T01:49:12.560Z,9.2
2022-11-07T01:54:18.624Z,9.2
2022-11-07T01:59:24.794Z,9.3
2022-11-07T02:04:30.739Z,9.3
2022-11-07T02:09:38.676Z,9.3
2022-11-07T02:14:44.784Z,9.3
2022-11-07T02:19:50.803Z,9.3
2022-11-07T02:24:56.869Z,9.2
2022-11-07T02:30:02.969Z,9.2
2022-11-07T02:35:09.008Z,9.2
2022-11-07T02:40:16.929Z,9.2
2022-11-07T02:45:23.015Z,9.2
2022-11-07T02:50:30.928Z,9.3
2022-11-07T02:55:36.981Z,9.3
2022-11-07T03:00:44.961Z,9.3
2022-11-07T03:05:50.972Z,9.3
2022-11-07T03:10:57.049Z,9.2
2022-11-07T03:16:05.097Z,9.2
2022-11-07T03:21:11.034Z,9.2
2022-11-07T03:26:17.110Z,9.2
2022-11-07T03:31:23.248Z,9.2
2022-11-07T03:36:29.216Z,9.2
2022-11-07T03:41:35.278Z,9.3
2022-11-07T03:46:41.351Z,9.3
2022-11-07T03:51:49.273Z,9.3
2022-11-07T03:56:55.362Z,9.2
2022-11-07T04:02:01.618Z,9.2
2022-11-07T04:07:07.455Z,9.2
2022-11-07T04:12:13.539Z,9.2
2022-11-07T04:17:19.605Z,9.2
2022-11-07T04:22:27.528Z,9.2
2022-11-07T04:27:34.016Z,9.2
2022-11-07T04:32:39.673Z,9.2
2022-11-07T04:37:47.584Z,9.1
2022-11-07T04:42:55.519Z,9.1
2022-11-07T04:48:03.520Z,9.1
2022-11-07T04:53:11.687Z,9.1
2022-11-07T04:58:19.386Z,9.1
2022-11-07T05:03:27.358Z,9.1
2022-11-07T05:08:35.271Z,9.2
2022-11-07T05:13:43.218Z,9.2
2022-11-07T05:18:49.287Z,9.3
2022-11-07T05:23:55.356Z,9.3
2022-11-07T05:29:01.390Z,9.3
2022-11-07T05:34:10.906Z,9.4
2022-11-07T05:39:13.523Z,9.5
2022-11-07T05:44:19.565Z,9.5
2022-11-07T05:49:25.681Z,9.6
2022-11-07T05:54:31.693Z,9.7
2022-11-07T05:59:37.756Z,9.7
2022-11-07T06:04:43.943Z,9.8
2022-11-07T06:09:49.896Z,9.8
2022-11-07T06:14:55.931Z,9.8
2022-11-07T06:20:03.986Z,9.9
2022-11-07T06:25:10.024Z,9.9
2022-11-07T06:30:17.866Z,10
2022-11-07T06:35:24.071Z,10.1
2022-11-07T06:40:30.001Z,10.1
2022-11-07T06:45:36.067Z,10.2
2022-11-07T06:50:42.319Z,10.1
2022-11-07T06:55:48.179Z,10.3
2022-11-07T07:00:54.291Z,10.2
2022-11-07T07:06:02.227Z,10.2
2022-11-07T07:11:08.232Z,10.3
2022-11-07T07:16:14.301Z,10.3
2022-11-07T07:21:20.473Z,10.3
2022-11-07T07:26:26.395Z,10.3
2022-11-07T07:31:32.464Z,10.1
2022-11-07T07:36:40.513Z,10.1
2022-11-07T07:41:48.356Z,10.1
2022-11-07T07:46:54.423Z,10.2
2022-11-07T07:57:08.531Z,10.3
2022-11-07T08:02:14.504Z,10.4
2022-11-07T08:07:20.544Z,10.5
2022-11-07T08:12:28.586Z,10.5
2022-11-07T08:17:34.531Z,10.4
2022-11-07T08:22:40.567Z,10.5
2022-11-07T08:27:48.646Z,10.5
2022-11-07T08:32:56.480Z,10.6
2022-11-07T08:38:04.418Z,10.6
2022-11-07T08:43:12.390Z,10.6
2022-11-07T08:48:20.305Z,10.6
2022-11-07T08:53:28.262Z,10.6
2022-11-07T08:58:36.262Z,10.6
2022-11-07T09:03:50.225Z,10.6
2022-11-07T09:08:52.120Z,10.6
2022-11-07T09:14:00.102Z,10.6
2022-11-07T09:19:08.015Z,10.6
2022-11-07T09:24:15.967Z,10.6
2022-11-07T09:29:23.914Z,10.6
2022-11-07T09:34:29.941Z,10.6
2022-11-07T09:39:36.019Z,10.6
2022-11-07T09:44:42.277Z,10.8
2022-11-07T09:49:50.098Z,10.9
2022-11-07T09:54:56.074Z,10.9
2022-11-07T10:05:10.110Z,10.7
2022-11-07T10:10:16.127Z,10.8
2022-11-07T10:15:22.184Z,10.8
2022-11-07T10:20:28.384Z,10.8
2022-11-07T10:25:36.189Z,10.9
2022-11-07T10:30:42.262Z,10.9
2022-11-07T10:35:48.338Z,10.9
2022-11-07T10:40:54.405Z,10.9
2022-11-07T10:46:00.415Z,11.1
2022-11-07T10:51:06.518Z,11.1
2022-11-07T10:56:12.542Z,11.1
2022-11-07T11:01:18.634Z,11.1
2022-11-07T11:06:24.718Z,11.1
2022-11-07T11:11:30.728Z,11.2
2022-11-07T11:16:36.815Z,11.2
2022-11-07T11:21:42.863Z,11.2
2022-11-07T11:26:50.781Z,11.2
2022-11-07T11:31:56.832Z,11.1
2022-11-07T11:37:02.934Z,11.1
2022-11-07T11:42:08.960Z,11.1
2022-11-07T11:47:16.897Z,11.2
2022-11-07T11:52:24.855Z,11.2
2022-11-07T11:57:30.880Z,11.2
2022-11-07T12:02:38.969Z,11.3
2022-11-07T12:07:44.931Z,11.3
2022-11-07T12:12:50.958Z,11.3
2022-11-07T12:17:57.015Z,11.4
2022-11-07T12:23:05.001Z,11.4
2022-11-07T12:28:12.905Z,11.4
2022-11-07T12:33:20.841Z,11.5
2022-11-07T12:38:28.841Z,11.5
2022-11-07T12:43:36.753Z,11.6
2022-11-07T12:48:44.700Z,11.4
2022-11-07T12:53:52.679Z,11.4
2022-11-07T12:59:00.576Z,11.5
2022-11-07T13:04:08.543Z,11.5
2022-11-07T13:09:16.503Z,11.4
2022-11-07T13:14:24.771Z,11.7
2022-11-07T13:19:33.146Z,11.7
2022-11-07T13:24:40.333Z,11.7
2022-11-07T13:29:48.263Z,11.5
2022-11-07T13:34:56.224Z,11.5
2022-11-07T13:40:04.325Z,11.7
2022-11-07T13:45:12.112Z,11.7
2022-11-07T13:50:18.183Z,11.7
2022-11-07T13:55:24.268Z,11.8
2022-11-07T14:00:32.292Z,11.8
2022-11-07T14:05:38.246Z,11.9
2022-11-07T14:10:44.342Z,11.9
2022-11-07T14:15:50.350Z,11.8
2022-11-07T14:20:56.413Z,11.8
2022-11-07T14:26:04.391Z,11.8
2022-11-07T14:31:10.406Z,11.8
2022-11-07T14:36:16.469Z,11.8
2022-11-07T14:41:22.613Z,11.8
2022-11-07T14:46:28.586Z,11.8
2022-11-07T14:51:36.523Z,11.7
2022-11-07T14:56:42.614Z,11.8
2022-11-07T15:01:48.947Z,11.7
2022-11-07T15:06:54.712Z,11.7
2022-11-07T15:12:00.790Z,11.7
2022-11-07T15:17:06.826Z,11.6
2022-11-07T15:22:12.872Z,11.6
2022-11-07T15:27:19.003Z,11.5
2022-11-07T15:32:24.998Z,11.4
2022-11-07T15:37:31.065Z,11.4
2022-11-07T15:42:39.031Z,11.3
2022-11-07T15:47:45.051Z,11.4
2022-11-07T15:57:59.126Z,11.3
2022-11-07T16:03:05.167Z,11.2
2022-11-07T16:08:11.189Z,11.2
2022-11-07T16:13:19.145Z,11.2
2022-11-07T16:18:25.191Z,11.2
2022-11-07T16:23:31.251Z,11.2
2022-11-07T16:28:39.211Z,11.2
2022-11-07T16:33:45.238Z,11.1
2022-11-07T16:38:53.175Z,11.1
2022-11-07T16:44:01.241Z,11.1
2022-11-07T16:49:09.082Z,11.1
2022-11-07T16:54:17.295Z,11.1
2022-11-07T16:59:24.990Z,11.2
2022-11-07T17:04:32.931Z,11.2
2022-11-07T17:09:40.853Z,11.2
2022-11-07T17:14:48.865Z,11.1
2022-11-07T17:19:56.765Z,11.1
2022-11-07T17:25:04.713Z,11.1
2022-11-07T17:30:12.687Z,11
2022-11-07T17:35:32.248Z,11
2022-11-07T17:40:28.557Z,11
2022-11-07T17:45:36.532Z,11
2022-11-07T17:50:44.457Z,11
2022-11-07T17:55:52.391Z,11
2022-11-07T18:01:00.371Z,11
2022-11-07T18:06:08.293Z,11
2022-11-07T18:11:16.236Z,11
2022-11-07T18:16:24.272Z,11
2022-11-07T18:21:30.254Z,10.9
2022-11-07T18:26:38.176Z,10.9
2022-11-07T18:31:44.274Z,10.9
2022-11-07T18:36:50.297Z,10.8
2022-11-07T18:41:56.387Z,10.8
2022-11-07T18:47:02.453Z,10.9
2022-11-07T18:52:08.482Z,10.8
2022-11-07T18:57:14.556Z,10.8
2022-11-07T19:02:20.640Z,10.8
2022-11-07T19:07:28.535Z,10.8
2022-11-07T19:12:34.605Z,10.8
2022-11-07T19:17:42.571Z,10.8
2022-11-07T19:22:48.592Z,10.8
2022-11-07T19:27:56.542Z,10.8
2022-11-07T19:33:02.616Z,10.8
2022-11-07T19:38:09.247Z,10.9
2022-11-07T19:43:14.985Z,10.9
2022-11-07T19:48:20.789Z,10.8
2022-11-07T19:53:28.714Z,10.8
2022-11-07T19:58:34.807Z,10.8
2022-11-07T20:03:42.771Z,10.8
2022-11-07T20:08:48.782Z,10.8
2022-11-07T20:14:02.706Z,10.8
2022-11-07T20:19:04.688Z,10.8
2022-11-07T20:24:12.594Z,10.8
2022-11-07T20:29:20.544Z,10.7
2022-11-07T20:34:28.526Z,10.7
2022-11-07T20:39:36.437Z,10.7
2022-11-07T20:44:44.386Z,10.8
2022-11-07T20:49:52.349Z,10.8
2022-11-07T20:55:00.277Z,10.8
2022-11-07T21:00:08.237Z,10.7
2022-11-07T21:05:18.138Z,10.7
2022-11-07T21:10:24.118Z,10.7
2022-11-07T21:15:32.430Z,10.7
2022-11-07T21:20:40.047Z,10.7
2022-11-07T21:25:47.988Z,10.9
2022-11-07T21:30:55.928Z,10.9
2022-11-07T21:36:04.002Z,10.9
2022-11-07T21:41:11.824Z,10.9
2022-11-07T21:46:19.774Z,10.7
2022-11-07T21:51:27.728Z,10.7
2022-11-07T21:56:35.663Z,10.7
2022-11-07T22:01:43.787Z,10.7
2022-11-07T22:06:51.577Z,10.6
2022-11-07T22:11:59.537Z,10.6
2022-11-07T22:17:07.458Z,10.8
2022-11-07T22:22:15.433Z,10.8
2022-11-07T22:27:21.445Z,10.8
2022-11-07T22:32:27.518Z,10.8
2022-11-07T22:37:33.607Z,10.6
2022-11-07T22:42:39.650Z,10.6
2022-11-07T22:47:47.607Z,10.6
2022-11-07T22:52:53.666Z,10.6
2022-11-07T22:58:01.559Z,10.6
2022-11-07T23:03:07.747Z,10.6
2022-11-07T23:08:16.058Z,10.6
2022-11-07T23:13:21.639Z,10.8
2022-11-07T23:18:27.818Z,10.8
2022-11-07T23:23:33.765Z,10.8
2022-11-07T23:28:41.684Z,10.6
2022-11-07T23:33:47.756Z,10.6
2022-11-07T23:38:55.719Z,10.6
2022-11-07T23:44:01.734Z,10.6
2022-11-07T23:49:14.377Z,10.5
2022-11-07T23:54:15.766Z,10.5
2022-11-07T23:59:23.718Z,10.7
